Time;durP1;ratioP1;P1;durP2;ratioP2;P2;SDS_P1;SDS_P2;PMS_P1;PMS_P2;Temp;Humidity;BMP_temperature;BMP_pressure;BME280_temperature;BME280_humidity;BME280_pressure;Samples;Min_cycle;Max_cycle;Signal;HPM_P1;HPM_P2
2022/01/12 00:03:37;;;;;;;3.85;2.88;;;;;;;;;;8337547;28;20032;-66
2022/01/12 00:07:37;;;;;;;4.82;3.28;;;;;;;;;;8338645;28;20457;-66
2022/01/12 00:11:37;;;;;;;4.50;3.63;;;;;;;;;;8342122;28;20073;-66
2022/01/12 00:15:38;;;;;;;5.35;3.78;;;;;;;;;;8341839;28;20394;-66
2022/01/12 00:19:38;;;;;;;4.38;3.25;;;;;;;;;;8344154;28;20017;-66
2022/01/12 00:23:40;;;;;;;4.45;3.50;;;;;;;;;;8343947;28;20021;-66
2022/01/12 00:36:20;;;;;;;3.55;3.20;;;;;;;;;;8322813;28;20055;-66
2022/01/12 00:40:20;;;;;;;4.82;3.47;;;;;;;;;;8343374;28;20021;-66
2022/01/12 00:44:29;;;;;;;5.47;3.20;;;;;;;;;;8341377;28;20029;-66
2022/01/12 00:48:29;;;;;;;4.45;3.40;;;;;;;;;;8343335;28;20033;-66
2022/01/12 00:52:29;;;;;;;3.85;3.45;;;;;;;;;;8341956;28;20034;-66
2022/01/12 00:56:30;;;;;;;4.40;2.92;;;;;;;;;;8343930;28;20025;-66
2022/01/12 01:00:30;;;;;;;6.38;4.22;;;;;;;;;;8341275;28;20469;-66
2022/01/12 01:04:30;;;;;;;5.88;3.63;;;;;;;;;;8342211;28;20940;-66
2022/01/12 01:08:31;;;;;;;5.82;3.80;;;;;;;;;;8342879;28;20028;-66
2022/01/12 01:12:33;;;;;;;6.05;4.55;;;;;;;;;;8340456;28;20036;-66
2022/01/12 01:16:50;;;;;;;5.15;4.10;;;;;;;;;;8341790;28;20390;-66
2022/01/12 01:29:28;;;;;;;5.20;4.22;;;;;;;;;;8338110;28;20032;-66
2022/01/12 01:33:28;;;;;;;4.67;3.83;;;;;;;;;;8337714;28;20343;-66
2022/01/12 01:37:29;;;;;;;5.80;4.67;;;;;;;;;;8340599;28;20302;-66
2022/01/12 01:41:29;;;;;;;5.28;4.40;;;;;;;;;;8339687;28;20264;-65
2022/01/12 01:54:08;;;;;;;5.47;4.40;;;;;;;;;;8339962;28;20035;-66
2022/01/12 01:58:08;;;;;;;5.55;4.30;;;;;;;;;;8339446;28;20587;-66
2022/01/12 02:02:08;;;;;;;4.03;3.63;;;;;;;;;;8299986;28;1089940;-66
2022/01/12 02:06:09;;;;;;;5.35;4.20;;;;;;;;;;8341145;28;20046;-65
2022/01/12 02:10:09;;;;;;;6.13;4.32;;;;;;;;;;8341298;28;20121;-66
2022/01/12 02:14:11;;;;;;;6.47;4.47;;;;;;;;;;8339194;28;20650;-65
2022/01/12 02:18:18;;;;;;;5.32;4.22;;;;;;;;;;8338805;28;20090;-65
2022/01/12 02:56:14;;;;;;;5.70;4.03;;;;;;;;;;8338019;28;20086;-66
2022/01/12 03:00:17;;;;;;;4.85;3.92;;;;;;;;;;8337318;28;20024;-66
2022/01/12 03:04:17;;;;;;;5.93;4.45;;;;;;;;;;8338464;28;20528;-66
2022/01/12 03:08:20;;;;;;;4.45;3.80;;;;;;;;;;8339599;28;20107;-66
2022/01/12 03:12:21;;;;;;;4.97;3.88;;;;;;;;;;8338635;28;20029;-65
2022/01/12 03:16:24;;;;;;;6.28;4.43;;;;;;;;;;8337832;28;20056;-66
2022/01/12 03:20:25;;;;;;;6.13;4.03;;;;;;;;;;8339594;28;20033;-65
2022/01/12 03:24:25;;;;;;;6.93;4.25;;;;;;;;;;8340384;28;20031;-65
2022/01/12 03:28:25;;;;;;;7.50;4.95;;;;;;;;;;8338217;28;20992;-66
2022/01/12 03:32:36;;;;;;;5.93;4.22;;;;;;;;;;8336349;28;20146;-65
2022/01/12 03:36:42;;;;;;;5.45;4.53;;;;;;;;;;8336396;28;20283;-65
2022/01/12 03:40:42;;;;;;;6.72;5.07;;;;;;;;;;8339147;28;20090;-65
2022/01/12 03:44:43;;;;;;;7.18;5.00;;;;;;;;;;8336419;28;20324;-65
2022/01/12 03:48:43;;;;;;;6.20;4.88;;;;;;;;;;8338092;28;20647;-65
2022/01/12 03:52:43;;;;;;;8.23;4.90;;;;;;;;;;8338130;28;20028;-65
2022/01/12 03:56:43;;;;;;;6.70;4.75;;;;;;;;;;8337669;28;20287;-65
2022/01/12 04:00:43;;;;;;;6.00;4.70;;;;;;;;;;8337760;28;20039;-65
2022/01/12 04:05:07;;;;;;;8.18;4.32;;;;;;;;;;8337037;28;20508;-65
2022/01/12 04:09:04;;;;;;;7.47;5.07;;;;;;;;;;8336339;28;20047;-65
2022/01/12 04:13:04;;;;;;;6.47;4.88;;;;;;;;;;8335726;28;20533;-65
2022/01/12 04:17:04;;;;;;;6.65;4.72;;;;;;;;;;8336991;28;20044;-65
2022/01/12 04:21:07;;;;;;;7.82;4.97;;;;;;;;;;8339514;28;20029;-65
2022/01/12 04:25:08;;;;;;;6.78;4.55;;;;;;;;;;8337415;28;20025;-65
2022/01/12 04:29:08;;;;;;;6.53;5.15;;;;;;;;;;8338678;28;20083;-65
2022/01/12 04:33:08;;;;;;;5.97;4.70;;;;;;;;;;8336565;28;20135;-65
2022/01/12 04:37:08;;;;;;;5.90;4.43;;;;;;;;;;8337872;28;20282;-65
2022/01/12 04:41:09;;;;;;;6.93;4.85;;;;;;;;;;8336061;28;20267;-65
2022/01/12 04:46:23;;;;;;;6.30;4.80;;;;;;;;;;8335831;28;20545;-66
2022/01/12 04:53:46;;;;;;;7.25;5.13;;;;;;;;;;8336397;28;20099;-65
2022/01/12 04:57:46;;;;;;;5.93;4.57;;;;;;;;;;8338994;28;20025;-65
2022/01/12 05:01:52;;;;;;;6.60;4.90;;;;;;;;;;8341129;28;20039;-66
2022/01/12 05:14:34;;;;;;;10.93;6.40;;;;;;;;;;8341971;28;20067;-65
2022/01/12 05:18:34;;;;;;;8.45;5.80;;;;;;;;;;8339155;28;20592;-65
2022/01/12 05:22:34;;;;;;;11.45;6.53;;;;;;;;;;8343307;28;20032;-65
2022/01/12 05:26:35;;;;;;;18.20;9.32;;;;;;;;;;8342828;28;20052;-65
2022/01/12 05:30:35;;;;;;;12.50;6.47;;;;;;;;;;8341929;28;20032;-65
2022/01/12 05:34:37;;;;;;;8.20;5.38;;;;;;;;;;8340563;28;20282;-65
2022/01/12 05:38:37;;;;;;;7.63;5.03;;;;;;;;;;8339967;28;20032;-65
2022/01/12 05:42:37;;;;;;;5.57;4.25;;;;;;;;;;8340849;28;20094;-65
2022/01/12 05:46:40;;;;;;;6.60;4.57;;;;;;;;;;8341207;28;20045;-65
2022/01/12 05:50:41;;;;;;;5.45;4.13;;;;;;;;;;8340803;28;20206;-65
2022/01/12 05:54:41;;;;;;;5.40;4.13;;;;;;;;;;8341701;28;20032;-65
2022/01/12 05:58:42;;;;;;;5.15;4.10;;;;;;;;;;8339215;28;20062;-65
2022/01/12 06:02:42;;;;;;;5.10;4.22;;;;;;;;;;8340151;28;20430;-65
2022/01/12 06:06:42;;;;;;;5.82;4.43;;;;;;;;;;8339086;28;20393;-65
2022/01/12 06:10:42;;;;;;;6.43;4.47;;;;;;;;;;8339527;28;20027;-65
2022/01/12 06:14:42;;;;;;;5.77;4.10;;;;;;;;;;8339467;28;20494;-65
2022/01/12 06:18:43;;;;;;;4.25;3.85;;;;;;;;;;8339689;28;20281;-65
2022/01/12 06:22:43;;;;;;;4.30;3.58;;;;;;;;;;8339105;28;20082;-65
2022/01/12 06:26:44;;;;;;;5.97;4.32;;;;;;;;;;8340347;28;20021;-65
2022/01/12 06:35:03;;;;;;;7.55;5.15;;;;;;;;;;8336533;28;20473;-65
2022/01/12 06:39:06;;;;;;;9.77;5.68;;;;;;;;;;8338738;28;20127;-65
2022/01/12 06:43:06;;;;;;;10.75;5.50;;;;;;;;;;8339823;28;20032;-65
2022/01/12 06:47:06;;;;;;;8.90;5.30;;;;;;;;;;8337455;28;20139;-65
2022/01/12 06:51:06;;;;;;;7.55;4.60;;;;;;;;;;8338393;28;20024;-65
2022/01/12 06:55:07;;;;;;;6.65;4.10;;;;;;;;;;8338753;28;20032;-65
2022/01/12 06:59:08;;;;;;;6.35;5.13;;;;;;;;;;8339238;28;20056;-65
2022/01/12 07:03:08;;;;;;;7.90;5.63;;;;;;;;;;8336915;28;20756;-64
2022/01/12 07:07:10;;;;;;;9.05;4.57;;;;;;;;;;8338985;28;20039;-65
2022/01/12 07:11:10;;;;;;;6.85;4.90;;;;;;;;;;8339186;28;20052;-64
2022/01/12 07:15:10;;;;;;;6.80;4.85;;;;;;;;;;8337867;28;20031;-65
2022/01/12 07:19:11;;;;;;;4.20;3.42;;;;;;;;;;8338298;28;20483;-65
2022/01/12 07:23:11;;;;;;;6.07;4.30;;;;;;;;;;8340307;28;20020;-65
2022/01/12 07:27:11;;;;;;;9.13;5.47;;;;;;;;;;8337608;28;20144;-65
2022/01/12 07:31:11;;;;;;;13.50;7.65;;;;;;;;;;8337679;28;20049;-65
2022/01/12 07:35:12;;;;;;;17.67;9.18;;;;;;;;;;8340295;28;20286;-65
2022/01/12 07:39:12;;;;;;;8.85;5.50;;;;;;;;;;8340132;28;20484;-65
2022/01/12 07:43:12;;;;;;;6.15;4.50;;;;;;;;;;8337059;28;20551;-64
2022/01/12 07:47:12;;;;;;;5.37;4.10;;;;;;;;;;8337543;28;20044;-65
2022/01/12 07:51:14;;;;;;;5.85;3.80;;;;;;;;;;8338351;28;20810;-65
2022/01/12 07:55:14;;;;;;;7.95;4.20;;;;;;;;;;8337468;28;20028;-65
2022/01/12 07:59:14;;;;;;;9.02;4.32;;;;;;;;;;8338608;28;20067;-65
2022/01/12 08:03:15;;;;;;;15.85;5.65;;;;;;;;;;8336209;28;20173;-65
2022/01/12 08:07:18;;;;;;;9.68;4.78;;;;;;;;;;8337838;28;20025;-65
2022/01/12 08:11:18;;;;;;;5.78;4.25;;;;;;;;;;8339365;28;20178;-65
2022/01/12 08:15:18;;;;;;;7.63;4.35;;;;;;;;;;8337591;28;20082;-65
2022/01/12 08:19:20;;;;;;;15.52;4.60;;;;;;;;;;8336241;28;20067;-65
2022/01/12 08:23:21;;;;;;;5.95;4.30;;;;;;;;;;8338636;28;20032;-65
2022/01/12 08:27:21;;;;;;;7.75;4.57;;;;;;;;;;8336776;28;20680;-65
2022/01/12 08:31:21;;;;;;;6.80;5.03;;;;;;;;;;8338631;28;20049;-65
2022/01/12 08:35:22;;;;;;;10.00;4.68;;;;;;;;;;8343797;28;20291;-65
2022/01/12 08:39:22;;;;;;;7.50;5.25;;;;;;;;;;8343782;28;20025;-65
2022/01/12 08:43:23;;;;;;;16.73;6.45;;;;;;;;;;8344341;28;20326;-65
2022/01/12 08:47:23;;;;;;;11.18;6.47;;;;;;;;;;8344244;28;20528;-65
2022/01/12 08:51:23;;;;;;;11.02;6.47;;;;;;;;;;8344128;28;20639;-64
2022/01/12 08:55:23;;;;;;;13.30;5.93;;;;;;;;;;8356656;28;20036;-65
2022/01/12 08:59:23;;;;;;;16.08;6.78;;;;;;;;;;8359723;28;20020;-65
2022/01/12 09:03:24;;;;;;;14.18;7.90;;;;;;;;;;8341282;28;20048;-65
2022/01/12 09:07:24;;;;;;;13.55;7.03;;;;;;;;;;8344439;28;20635;-64
2022/01/12 09:11:25;;;;;;;14.07;7.20;;;;;;;;;;8343665;28;20045;-65
2022/01/12 09:15:25;;;;;;;9.43;6.25;;;;;;;;;;8340792;28;20108;-64
2022/01/12 09:19:26;;;;;;;17.17;7.55;;;;;;;;;;8343265;28;20080;-65
2022/01/12 09:23:26;;;;;;;13.35;7.18;;;;;;;;;;8343803;28;20063;-64
2022/01/12 09:27:26;;;;;;;13.38;6.47;;;;;;;;;;8342125;28;20383;-64
2022/01/12 09:31:26;;;;;;;10.77;7.13;;;;;;;;;;8342594;28;20588;-65
2022/01/12 09:35:27;;;;;;;9.70;6.93;;;;;;;;;;8340382;28;20577;-64
2022/01/12 09:39:27;;;;;;;9.65;6.60;;;;;;;;;;8342608;28;20032;-65
2022/01/12 09:43:30;;;;;;;10.43;7.10;;;;;;;;;;8341020;28;20362;-65
2022/01/12 09:47:30;;;;;;;8.55;6.35;;;;;;;;;;8339894;28;20108;-65
2022/01/12 09:51:31;;;;;;;11.60;6.97;;;;;;;;;;8341151;28;20040;-65
2022/01/12 09:55:31;;;;;;;8.65;6.43;;;;;;;;;;8341533;28;20276;-65
2022/01/12 09:59:31;;;;;;;7.43;4.90;;;;;;;;;;8342674;28;20112;-65
2022/01/12 10:03:32;;;;;;;8.45;5.70;;;;;;;;;;8340240;28;20044;-65
2022/01/12 10:07:32;;;;;;;6.63;4.68;;;;;;;;;;8341445;28;20072;-65
2022/01/12 10:11:33;;;;;;;6.63;5.05;;;;;;;;;;8340413;28;20390;-65
2022/01/12 10:15:33;;;;;;;7.65;4.50;;;;;;;;;;8341113;28;21522;-65
2022/01/12 10:19:33;;;;;;;7.78;4.55;;;;;;;;;;8339114;28;20020;-65
2022/01/12 10:23:38;;;;;;;7.32;4.50;;;;;;;;;;8340649;28;20302;-65
2022/01/12 10:27:39;;;;;;;5.88;4.50;;;;;;;;;;8340339;28;20528;-65
2022/01/12 10:31:58;;;;;;;8.90;5.47;;;;;;;;;;8340269;28;20109;-65
2022/01/12 10:36:06;;;;;;;6.72;5.00;;;;;;;;;;8342247;28;20537;-65
2022/01/12 10:40:09;;;;;;;7.68;4.60;;;;;;;;;;8340554;28;20108;-65
2022/01/12 10:44:17;;;;;;;6.18;4.32;;;;;;;;;;8339204;28;20040;-65
2022/01/12 10:48:18;;;;;;;5.93;4.80;;;;;;;;;;8338903;28;20036;-65
2022/01/12 10:52:18;;;;;;;5.95;4.78;;;;;;;;;;8340372;28;20029;-65
2022/01/12 10:56:20;;;;;;;6.47;4.53;;;;;;;;;;8338873;28;20064;-65
2022/01/12 11:00:25;;;;;;;6.47;3.88;;;;;;;;;;8339405;28;20474;-65
2022/01/12 11:04:26;;;;;;;5.88;3.25;;;;;;;;;;8337059;28;20611;-65
2022/01/12 11:08:26;;;;;;;5.70;4.17;;;;;;;;;;8339700;28;20334;-65
2022/01/12 11:12:27;;;;;;;5.15;4.10;;;;;;;;;;8340663;28;20890;-66
2022/01/12 11:16:27;;;;;;;6.72;4.70;;;;;;;;;;8337372;28;20115;-65
2022/01/12 11:20:30;;;;;;;5.60;4.60;;;;;;;;;;8338591;28;20036;-65
2022/01/12 11:24:32;;;;;;;6.18;4.75;;;;;;;;;;8339376;28;20044;-65
2022/01/12 11:28:37;;;;;;;5.30;4.30;;;;;;;;;;8339081;28;20021;-65
2022/01/12 11:32:37;;;;;;;5.90;4.55;;;;;;;;;;8338154;28;20055;-65
2022/01/12 11:36:38;;;;;;;6.03;4.22;;;;;;;;;;8338286;28;20544;-65
2022/01/12 11:40:40;;;;;;;4.35;3.53;;;;;;;;;;8339005;28;20111;-65
2022/01/12 11:44:40;;;;;;;5.93;3.88;;;;;;;;;;8339398;28;20032;-65
2022/01/12 11:48:41;;;;;;;4.80;3.72;;;;;;;;;;8337494;28;20382;-65
2022/01/12 11:52:42;;;;;;;4.53;3.47;;;;;;;;;;8339358;28;20523;-65
2022/01/12 11:56:55;;;;;;;4.80;3.92;;;;;;;;;;8335848;28;20028;-65
2022/01/12 12:00:56;;;;;;;3.80;3.40;;;;;;;;;;8336488;28;20588;-65
2022/01/12 12:04:57;;;;;;;3.95;3.42;;;;;;;;;;8336862;28;20036;-65
2022/01/12 12:08:59;;;;;;;3.95;3.35;;;;;;;;;;8344645;28;20037;-65
2022/01/12 12:12:59;;;;;;;8.27;4.00;;;;;;;;;;8343977;28;20491;-65
2022/01/12 12:16:59;;;;;;;5.80;3.30;;;;;;;;;;8343014;28;20071;-64
2022/01/12 12:20:59;;;;;;;3.92;3.25;;;;;;;;;;8345037;28;20021;-65
2022/01/12 12:25:04;;;;;;;5.03;3.33;;;;;;;;;;8341274;28;20049;-65
2022/01/12 12:29:04;;;;;;;;;;;;;;;;;;8343179;28;20171;-65
2022/01/12 12:33:08;;;;;;;4.85;3.15;;;;;;;;;;8341829;28;20385;-65
2022/01/12 12:37:09;;;;;;;4.32;3.42;;;;;;;;;;8343451;28;20111;-65
2022/01/12 12:41:10;;;;;;;3.47;3.17;;;;;;;;;;8343972;28;20484;-65
2022/01/12 12:45:10;;;;;;;4.00;3.50;;;;;;;;;;8342846;28;20386;-65
2022/01/12 12:49:10;;;;;;;3.20;2.53;;;;;;;;;;8344040;28;20799;-65
2022/01/12 12:53:11;;;;;;;3.75;3.00;;;;;;;;;;8342907;28;20271;-65
2022/01/12 12:57:11;;;;;;;4.97;3.60;;;;;;;;;;8341289;28;20020;-65
2022/01/12 13:01:12;;;;;;;4.65;3.50;;;;;;;;;;8339787;28;20162;-65
2022/01/12 13:05:14;;;;;;;4.72;3.60;;;;;;;;;;8340606;28;20572;-65
2022/01/12 13:09:16;;;;;;;6.72;4.40;;;;;;;;;;8344102;28;20398;-65
2022/01/12 13:13:16;;;;;;;7.03;4.60;;;;;;;;;;8339537;28;20465;-65
2022/01/12 13:17:27;;;;;;;5.90;4.63;;;;;;;;;;8338725;28;20045;-65
2022/01/12 13:21:27;;;;;;;4.80;3.97;;;;;;;;;;8333325;28;20104;-65
2022/01/12 13:25:27;;;;;;;7.68;4.78;;;;;;;;;;8333399;28;20052;-65
2022/01/12 13:29:28;;;;;;;7.43;5.30;;;;;;;;;;8336765;28;20034;-65
2022/01/12 13:33:36;;;;;;;7.43;5.05;;;;;;;;;;8333664;28;20036;-65
2022/01/12 13:37:36;;;;;;;6.82;4.85;;;;;;;;;;8336872;28;20060;-65
2022/01/12 13:41:40;;;;;;;5.57;4.38;;;;;;;;;;8336995;28;20032;-64
2022/01/12 13:45:46;;;;;;;5.82;3.80;;;;;;;;;;8335712;28;20037;-65
2022/01/12 13:49:46;;;;;;;4.70;3.65;;;;;;;;;;8336178;28;20020;-65
2022/01/12 13:53:46;;;;;;;4.60;3.83;;;;;;;;;;8336173;28;20256;-65
2022/01/12 13:57:54;;;;;;;4.85;3.97;;;;;;;;;;8337076;28;20355;-64
2022/01/12 14:01:56;;;;;;;6.15;4.35;;;;;;;;;;8335481;28;20037;-65
2022/01/12 14:06:00;;;;;;;6.85;4.63;;;;;;;;;;8335812;28;20040;-64
2022/01/12 14:10:00;;;;;;;6.17;4.80;;;;;;;;;;8337196;28;20129;-65
2022/01/12 14:14:00;;;;;;;6.38;4.80;;;;;;;;;;8335220;28;20025;-65
2022/01/12 14:18:01;;;;;;;8.75;4.32;;;;;;;;;;8336943;28;20128;-65
2022/01/12 14:22:01;;;;;;;8.30;5.10;;;;;;;;;;8336058;28;20718;-64
2022/01/12 14:26:01;;;;;;;5.82;4.75;;;;;;;;;;8337021;28;20449;-64
2022/01/12 14:30:03;;;;;;;6.20;4.50;;;;;;;;;;8336504;28;20425;-65
2022/01/12 14:34:04;;;;;;;6.22;4.75;;;;;;;;;;8332280;28;20593;-65
2022/01/12 14:38:04;;;;;;;6.70;5.10;;;;;;;;;;8336268;28;20496;-64
2022/01/12 14:42:06;;;;;;;7.57;5.22;;;;;;;;;;8335491;28;20031;-65
2022/01/12 14:46:06;;;;;;;8.43;5.10;;;;;;;;;;8331530;28;20037;-65
2022/01/12 14:50:07;;;;;;;6.90;5.03;;;;;;;;;;8335823;28;20116;-64
2022/01/12 14:54:07;;;;;;;6.05;4.88;;;;;;;;;;8333008;28;20856;-65
2022/01/12 14:58:07;;;;;;;8.32;5.53;;;;;;;;;;8335446;28;20163;-65
2022/01/12 15:02:07;;;;;;;6.82;4.68;;;;;;;;;;8334738;28;20040;-65
2022/01/12 15:06:08;;;;;;;6.88;5.28;;;;;;;;;;8333212;28;20478;-65
2022/01/12 15:10:08;;;;;;;5.93;4.13;;;;;;;;;;8334320;28;20672;-64
2022/01/12 15:18:27;;;;;;;6.20;4.70;;;;;;;;;;8332556;28;20058;-65
2022/01/12 15:22:27;;;;;;;6.50;4.47;;;;;;;;;;8332416;28;20399;-65
2022/01/12 15:26:27;;;;;;;12.32;4.35;;;;;;;;;;8333563;28;20409;-65
2022/01/12 15:30:27;;;;;;;5.75;4.40;;;;;;;;;;8334963;28;20138;-64
2022/01/12 15:34:28;;;;;;;9.05;5.03;;;;;;;;;;8334463;28;20029;-64
2022/01/12 15:38:28;;;;;;;5.60;4.38;;;;;;;;;;8332640;28;20104;-64
2022/01/12 15:42:28;;;;;;;5.65;4.30;;;;;;;;;;8334030;28;20013;-65
2022/01/12 15:46:28;;;;;;;6.60;4.53;;;;;;;;;;8332691;28;20033;-65
2022/01/12 15:50:30;;;;;;;7.55;5.15;;;;;;;;;;8332749;28;20430;-65
2022/01/12 15:54:30;;;;;;;8.35;5.03;;;;;;;;;;8334267;28;20535;-65
2022/01/12 15:58:32;;;;;;;12.40;5.53;;;;;;;;;;8333363;28;20048;-65
2022/01/12 16:02:32;;;;;;;7.50;5.68;;;;;;;;;;8330502;28;20493;-64
2022/01/12 16:06:32;;;;;;;7.82;5.68;;;;;;;;;;8329696;28;20116;-65
2022/01/12 16:10:33;;;;;;;8.73;5.50;;;;;;;;;;8333268;28;20274;-64
2022/01/12 16:14:33;;;;;;;9.23;6.43;;;;;;;;;;8329549;28;21595;-64
2022/01/12 16:18:34;;;;;;;8.40;5.78;;;;;;;;;;8332471;28;20040;-64
2022/01/12 16:22:34;;;;;;;7.65;5.45;;;;;;;;;;8333830;28;20129;-64
2022/01/12 16:26:34;;;;;;;7.50;5.53;;;;;;;;;;8332234;28;20067;-65
2022/01/12 16:30:45;;;;;;;5.85;4.80;;;;;;;;;;8332656;28;20192;-64
2022/01/12 16:34:46;;;;;;;9.75;5.53;;;;;;;;;;8327729;28;20817;-65
2022/01/12 16:38:47;;;;;;;6.95;4.60;;;;;;;;;;8329265;28;20021;-65
2022/01/12 16:42:47;;;;;;;6.57;4.78;;;;;;;;;;8330435;28;20111;-65
2022/01/12 16:46:49;;;;;;;7.25;4.15;;;;;;;;;;8327333;28;20559;-65
2022/01/12 16:50:49;;;;;;;5.18;3.88;;;;;;;;;;8331157;28;20292;-65
2022/01/12 16:54:49;;;;;;;5.75;4.22;;;;;;;;;;8332225;28;20114;-65
2022/01/12 16:58:50;;;;;;;5.32;4.43;;;;;;;;;;8333341;28;20637;-65
2022/01/12 17:02:50;;;;;;;5.68;4.30;;;;;;;;;;8332059;28;20477;-65
2022/01/12 17:06:51;;;;;;;8.73;4.10;;;;;;;;;;8333276;28;20282;-65
2022/01/12 17:10:52;;;;;;;5.32;3.80;;;;;;;;;;8332557;28;20295;-65
2022/01/12 17:14:52;;;;;;;9.32;4.18;;;;;;;;;;8337068;28;20024;-64
2022/01/12 17:18:57;;;;;;;6.10;3.83;;;;;;;;;;8333784;28;20033;-65
2022/01/12 17:22:57;;;;;;;8.88;3.92;;;;;;;;;;8336647;28;20736;-64
2022/01/12 17:26:57;;;;;;;5.10;4.28;;;;;;;;;;8334554;28;20035;-64
2022/01/12 17:30:58;;;;;;;4.97;3.70;;;;;;;;;;8335986;28;20410;-64
2022/01/12 17:34:58;;;;;;;5.25;3.97;;;;;;;;;;8335642;28;20599;-64
2022/01/12 17:38:58;;;;;;;7.13;4.40;;;;;;;;;;8338252;28;20029;-64
2022/01/12 17:42:58;;;;;;;11.98;6.85;;;;;;;;;;8335766;28;20475;-64
2022/01/12 17:47:01;;;;;;;11.13;6.10;;;;;;;;;;8335843;28;20032;-65
2022/01/12 17:51:02;;;;;;;8.27;5.25;;;;;;;;;;8336326;28;20551;-64
2022/01/12 17:55:04;;;;;;;9.32;6.50;;;;;;;;;;8334724;28;20032;-64
2022/01/12 17:59:05;;;;;;;9.75;6.15;;;;;;;;;;8333686;28;20025;-65
2022/01/12 18:03:05;;;;;;;10.35;6.40;;;;;;;;;;8334629;28;20485;-64
2022/01/12 18:07:06;;;;;;;11.52;7.05;;;;;;;;;;8333184;28;20560;-64
2022/01/12 18:11:08;;;;;;;11.48;8.13;;;;;;;;;;8332145;28;20127;-65
2022/01/12 18:15:08;;;;;;;11.25;7.75;;;;;;;;;;8332507;28;20064;-65
2022/01/12 18:19:34;;;;;;;11.27;7.20;;;;;;;;;;8336045;28;20588;-64
2022/01/12 18:23:29;;;;;;;9.35;6.80;;;;;;;;;;8328602;28;20406;-65
2022/01/12 18:27:29;;;;;;;9.27;7.00;;;;;;;;;;8328615;28;20067;-65
2022/01/12 18:31:29;;;;;;;9.02;6.50;;;;;;;;;;8329799;28;20339;-65
2022/01/12 18:35:30;;;;;;;8.15;5.60;;;;;;;;;;8331443;28;20493;-64
2022/01/12 18:39:32;;;;;;;8.63;5.07;;;;;;;;;;8338356;28;20134;-64
2022/01/12 18:43:32;;;;;;;10.05;5.53;;;;;;;;;;8333812;28;20049;-65
2022/01/12 18:47:33;;;;;;;5.85;4.00;;;;;;;;;;8332570;28;20788;-64
2022/01/12 18:51:33;;;;;;;6.07;4.80;;;;;;;;;;8333016;28;20031;-64
2022/01/12 18:55:34;;;;;;;9.75;6.55;;;;;;;;;;8333529;28;20439;-65
2022/01/12 18:59:34;;;;;;;9.43;5.65;;;;;;;;;;8333647;28;21785;-64
2022/01/12 19:03:34;;;;;;;6.47;4.97;;;;;;;;;;8331547;28;20190;-64
2022/01/12 19:07:34;;;;;;;7.03;5.10;;;;;;;;;;8333308;28;20025;-65
2022/01/12 19:11:36;;;;;;;7.68;5.00;;;;;;;;;;8332619;28;22052;-64
2022/01/12 19:15:36;;;;;;;8.45;5.78;;;;;;;;;;8333904;28;20036;-65
2022/01/12 19:19:37;;;;;;;7.23;5.10;;;;;;;;;;8333151;28;20683;-64
2022/01/12 19:23:37;;;;;;;9.35;4.72;;;;;;;;;;8333043;28;20268;-64
2022/01/12 19:27:37;;;;;;;6.55;4.38;;;;;;;;;;8334142;28;20060;-65
2022/01/12 19:31:37;;;;;;;7.00;4.55;;;;;;;;;;8333746;28;20549;-64
2022/01/12 19:35:38;;;;;;;5.57;3.60;;;;;;;;;;8331067;28;20367;-65
2022/01/12 19:39:38;;;;;;;7.47;5.00;;;;;;;;;;8334048;28;20488;-64
2022/01/12 19:43:38;;;;;;;7.00;5.25;;;;;;;;;;8333185;28;20091;-64
2022/01/12 19:47:38;;;;;;;8.02;5.53;;;;;;;;;;8332215;28;20036;-65
2022/01/12 19:51:42;;;;;;;7.30;5.07;;;;;;;;;;8333784;28;20100;-64
2022/01/12 19:55:56;;;;;;;7.80;4.40;;;;;;;;;;8332707;28;20032;-65
2022/01/12 19:59:57;;;;;;;10.30;5.32;;;;;;;;;;8329959;28;20548;-64
2022/01/12 20:04:02;;;;;;;7.30;4.55;;;;;;;;;;8330033;28;20380;-64
2022/01/12 20:08:23;;;;;;;5.30;4.25;;;;;;;;;;8331698;28;20044;-64
2022/01/12 20:12:23;;;;;;;11.15;5.38;;;;;;;;;;8327487;28;20625;-64
2022/01/12 20:16:28;;;;;;;7.70;5.32;;;;;;;;;;8322164;28;20563;-65
2022/01/12 20:25:25;;;;;;;7.07;4.65;;;;;;;;;;8332317;28;20056;-64
2022/01/12 20:29:27;;;;;;;7.10;5.20;;;;;;;;;;8337281;28;20025;-64
2022/01/12 20:33:27;;;;;;;7.70;5.38;;;;;;;;;;8338727;28;20502;-64
2022/01/12 20:37:28;;;;;;;7.72;5.53;;;;;;;;;;8337541;28;20036;-64
2022/01/12 20:41:32;;;;;;;10.35;5.70;;;;;;;;;;8339764;28;20021;-64
2022/01/12 20:45:32;;;;;;;7.90;5.95;;;;;;;;;;8337439;28;20152;-64
2022/01/12 20:49:33;;;;;;;10.80;6.20;;;;;;;;;;8337869;28;20072;-64
2022/01/12 20:53:33;;;;;;;9.85;5.53;;;;;;;;;;8338611;28;20037;-64
2022/01/12 20:57:34;;;;;;;8.13;5.60;;;;;;;;;;8336622;28;21746;-64
2022/01/12 21:01:34;;;;;;;16.08;7.38;;;;;;;;;;8336676;28;21205;-64
2022/01/12 21:05:34;;;;;;;10.90;7.30;;;;;;;;;;8335769;28;20032;-64
2022/01/12 21:09:35;;;;;;;12.27;6.40;;;;;;;;;;8336566;28;21621;-64
2022/01/12 21:13:36;;;;;;;11.23;6.85;;;;;;;;;;8337645;28;20032;-64
2022/01/12 21:17:36;;;;;;;11.45;5.75;;;;;;;;;;8337396;28;20546;-64
2022/01/12 21:21:37;;;;;;;9.50;5.55;;;;;;;;;;8335225;28;20413;-64
2022/01/12 21:25:37;;;;;;;10.70;6.38;;;;;;;;;;8337879;28;20544;-64
2022/01/12 21:29:37;;;;;;;13.82;7.25;;;;;;;;;;8335471;28;20028;-64
2022/01/12 21:33:38;;;;;;;15.53;7.27;;;;;;;;;;8336577;28;20028;-64
2022/01/12 21:37:47;;;;;;;12.77;6.45;;;;;;;;;;8336275;28;21072;-64
2022/01/12 21:41:49;;;;;;;10.15;5.75;;;;;;;;;;8336179;28;20309;-64
2022/01/12 21:45:50;;;;;;;8.77;5.35;;;;;;;;;;8334899;28;20313;-64
2022/01/12 21:49:50;;;;;;;11.88;6.95;;;;;;;;;;8335152;28;20016;-64
2022/01/12 21:53:50;;;;;;;12.13;6.45;;;;;;;;;;8336192;28;20017;-64
2022/01/12 21:57:50;;;;;;;9.18;5.45;;;;;;;;;;8332766;28;20028;-64
2022/01/12 22:01:52;;;;;;;10.23;6.53;;;;;;;;;;8334873;28;20037;-64
2022/01/12 22:05:52;;;;;;;11.02;6.68;;;;;;;;;;8332776;28;20338;-64
2022/01/12 22:09:52;;;;;;;15.18;8.23;;;;;;;;;;8334874;28;20024;-64
2022/01/12 22:13:52;;;;;;;14.85;8.15;;;;;;;;;;8330834;28;20021;-64
2022/01/12 22:17:53;;;;;;;13.70;8.30;;;;;;;;;;8332631;28;20070;-64
2022/01/12 22:21:53;;;;;;;11.25;6.65;;;;;;;;;;8333014;28;20028;-64
2022/01/12 22:25:53;;;;;;;14.25;7.90;;;;;;;;;;8332226;28;20017;-64
2022/01/12 22:29:53;;;;;;;14.73;7.20;;;;;;;;;;8331968;28;20024;-64
2022/01/12 22:33:58;;;;;;;11.80;7.07;;;;;;;;;;8329149;28;20035;-64
2022/01/12 22:37:59;;;;;;;15.30;9.07;;;;;;;;;;8331623;28;20060;-64
2022/01/12 22:42:00;;;;;;;18.15;7.15;;;;;;;;;;8331279;28;20430;-64
2022/01/12 22:46:01;;;;;;;8.77;5.95;;;;;;;;;;8330335;28;20032;-64
2022/01/12 22:50:01;;;;;;;11.48;6.45;;;;;;;;;;8334159;28;20513;-64
2022/01/12 22:54:05;;;;;;;12.05;6.97;;;;;;;;;;8334304;28;20071;-64
2022/01/12 22:58:25;;;;;;;14.35;6.88;;;;;;;;;;8336664;28;20568;-65
2022/01/12 23:02:25;;;;;;;14.93;7.30;;;;;;;;;;8338111;28;20128;-64
2022/01/12 23:06:26;;;;;;;13.52;8.25;;;;;;;;;;8339040;28;20029;-64
2022/01/12 23:10:26;;;;;;;14.70;7.65;;;;;;;;;;8337661;28;20024;-64
2022/01/12 23:14:26;;;;;;;14.33;8.00;;;;;;;;;;8336756;28;20097;-64
2022/01/12 23:18:26;;;;;;;14.98;8.43;;;;;;;;;;8337692;28;20823;-64
2022/01/12 23:22:26;;;;;;;14.48;8.45;;;;;;;;;;8340088;28;20265;-64
2022/01/12 23:26:27;;;;;;;11.60;7.05;;;;;;;;;;8337364;28;20031;-65
2022/01/12 23:30:28;;;;;;;14.20;8.57;;;;;;;;;;8336353;28;20044;-64
2022/01/12 23:51:57;;;;;;;7.90;5.60;;;;;;;;;;8308349;28;20043;-64
2022/01/12 23:59:58;;;;;;;13.48;5.82;;;;;;;;;;8337984;28;20335;-64
